Date,TemperatureHighF,TemperatureAvgF,TemperatureLowF,DewpointHighF,DewpointAvgF,DewpointLowF,HumidityHigh,HumidityAvg,HumidityLow,PressureMaxIn,PressureMinIn,WindSpeedMaxMPH,WindSpeedAvgMPH,GustSpeedMaxMPH,PrecipitationSumIn
2013-2-1,72.0,52.9,36.9,36.1,29.4,23.1,64,43,23,30.18,30.09,5,0,5,0.00
2013-2-2,76.3,56.3,38.3,38.5,31.8,24.8,65,42,22,30.21,30.06,3,0,3,0.00
2013-2-3,70.9,59.4,51.4,37.7,32.2,28.3,51,37,23,30.09,29.94,6,0,6,0.00
2013-2-4,72.0,57.5,46.2,40.7,36.5,32.3,66,47,30,30.03,29.91,5,0,5,0.00
2013-2-5,74.7,58.3,43.3,44.4,38.7,34.3,76,51,27,30.00,29.88,6,0,6,0.08
2013-2-6,72.7,57.6,46.0,45.5,38.0,32.5,72,50,28,30.00,29.88,10,0,10,0.00
2013-2-7,73.2,57.1,42.8,42.8,37.0,29.5,74,50,27,30.09,29.91,5,0,5,0.00
2013-2-8,70.3,57.1,45.5,34.9,29.3,24.4,64,37,22,29.91,29.76,11,1,11,0.00
2013-2-9,53.1,45.7,36.9,37.9,30.5,23.6,84,57,38,29.94,29.79,12,1,12,0.28
2013-2-10,58.1,49.8,39.2,33.0,26.8,21.9,63,41,30,30.00,29.88,6,0,6,0.00
2013-2-11,52.9,39.5,32.2,35.6,28.5,21.1,91,67,38,30.09,29.91,7,0,7,0.28
2013-2-12,46.2,34.7,30.9,39.3,31.9,28.6,94,90,74,30.21,30.09,3,0,3,0.00
2013-2-20,51.3,38.5,33.4,37.3,31.3,28.5,88,76,49,29.91,29.71,15,1,15,0.25
2013-2-21,51.4,40.7,32.7,41.0,32.9,29.6,93,75,47,30.00,29.91,6,0,6,0.41
2013-2-22,56.1,44.8,34.3,41.3,31.5,23.9,86,61,38,30.09,29.94,6,0,6,0.00
2013-2-23,64.2,47.7,33.3,34.1,27.1,22.2,69,47,27,30.09,29.79,5,0,5,0.00
2013-2-24,51.4,44.0,38.5,31.2,20.3,11.1,67,40,26,30.03,29.79,11,1,11,0.00
2013-2-25,59.9,46.1,30.7,25.2,18.5,11.5,49,34,26,30.15,29.97,8,0,8,0.00
2013-2-26,64.0,48.2,29.5,28.9,20.5,13.6,52,34,24,30.03,29.91,9,0,9,0.00
2013-2-27,66.4,52.1,42.1,23.8,16.4,11.3,30,24,18,30.15,30.03,9,1,9,0.00
2013-2-28,70.0,52.7,34.9,29.3,18.4,7.2,32,26,18,30.24,30.15,7,1,7,0.00